Time;durP1;ratioP1;P1;durP2;ratioP2;P2;SDS_P1;SDS_P2;PMS_P1;PMS_P2;Temp;Humidity;BMP_temperature;BMP_pressure;BME280_temperature;BME280_humidity;BME280_pressure;Samples;Min_cycle;Max_cycle;Signal;HPM_P1;HPM_P2
2022/06/25 00:02:46;;;;;;;5.43;1.83;;;17.90;99.90;;;;;;6676720;89;20225;-79
2022/06/25 00:12:46;;;;;;;3.58;2.03;;;17.70;99.90;;;;;;6685290;89;20270;-78
2022/06/25 00:22:47;;;;;;;4.78;2.35;;;17.60;99.90;;;;;;6678382;89;20384;-79
2022/06/25 00:32:49;;;;;;;2.40;1.85;;;17.60;99.90;;;;;;6678734;89;20179;-80
2022/06/25 00:42:50;;;;;;;4.95;1.77;;;17.60;99.90;;;;;;6678714;89;20200;-80
2022/06/25 00:52:56;;;;;;;4.53;1.92;;;17.50;99.90;;;;;;6678053;89;20325;-80
2022/06/25 01:02:56;;;;;;;3.37;1.90;;;17.50;99.90;;;;;;6679089;89;20650;-79
2022/06/25 02:03:26;;;;;;;4.80;1.90;;;17.30;99.90;;;;;;7582038;77;20255;31
2022/06/25 04:24:18;;;;;;;5.93;2.87;;;16.80;99.90;;;;;;6708765;88;20226;-78
2022/06/25 04:34:19;;;;;;;5.78;2.58;;;16.90;99.90;;;;;;6700930;88;20207;-79
2022/06/25 04:44:19;;;;;;;6.90;2.70;;;17.00;99.90;;;;;;6700970;88;20165;-78
2022/06/25 04:54:20;;;;;;;4.40;2.58;;;17.10;99.90;;;;;;6699259;88;20228;-79
2022/06/25 05:04:21;;;;;;;7.68;2.72;;;17.20;99.90;;;;;;6671242;89;20207;-79
2022/06/25 05:14:21;;;;;;;4.13;2.50;;;17.50;99.90;;;;;;6666016;89;20158;-78
2022/06/25 05:24:22;;;;;;;4.53;2.37;;;17.80;99.90;;;;;;6645503;89;20506;-79
2022/06/25 05:34:22;;;;;;;5.80;2.40;;;17.80;99.90;;;;;;6673250;88;20250;-79
2022/06/25 05:44:23;;;;;;;4.32;2.58;;;18.00;99.90;;;;;;6681903;89;21028;-79
2022/06/25 05:54:23;;;;;;;4.95;2.30;;;18.50;99.90;;;;;;6697284;88;20184;-78
2022/06/25 06:04:24;;;;;;;3.00;2.05;;;18.80;99.90;;;;;;6688229;88;20188;-80
2022/06/25 06:14:25;;;;;;;6.72;2.10;;;19.10;99.90;;;;;;6692335;88;20221;-78
2022/06/25 06:24:26;;;;;;;6.28;2.22;;;19.50;99.90;;;;;;6683528;88;20164;-80
2022/06/25 06:34:26;;;;;;;3.92;1.92;;;19.90;99.90;;;;;;6698002;89;20180;-80
2022/06/25 06:44:27;;;;;;;3.97;1.80;;;20.20;99.90;;;;;;6698300;89;20175;-81
2022/06/25 06:54:27;;;;;;;6.22;1.77;;;20.70;99.90;;;;;;6686351;89;20879;-79
2022/06/25 07:04:28;;;;;;;6.23;1.97;;;20.80;99.90;;;;;;6682979;89;20207;-81
2022/06/25 07:45:45;;;;;;;4.05;1.73;;;22.10;99.90;;;;;;6791010;77;23310;-85
2022/06/25 08:16:53;;;;;;;3.83;1.47;;;22.80;99.90;;;;;;6731279;88;20305;-83
2022/06/25 08:36:57;;;;;;;4.90;1.50;;;23.60;99.90;;;;;;6730625;88;20668;-80
2022/06/25 08:46:58;;;;;;;4.50;1.70;;;23.00;99.90;;;;;;6710189;88;20256;-79
2022/06/25 08:56:58;;;;;;;5.28;1.70;;;23.20;99.90;;;;;;6714943;88;20192;-80
2022/06/25 09:07:13;;;;;;;4.22;1.60;;;23.20;99.90;;;;;;6711835;88;20219;-80
2022/06/25 09:17:15;;;;;;;4.87;1.67;;;24.30;99.90;;;;;;6703834;88;20194;-80
2022/06/25 09:27:36;;;;;;;4.35;1.77;;;25.30;99.90;;;;;;6711378;88;20186;-85
2022/06/25 09:37:37;;;;;;;3.67;1.80;;;24.10;99.90;;;;;;6712972;88;20193;-84
2022/06/25 09:47:44;;;;;;;3.45;1.90;;;24.30;99.90;;;;;;6707692;88;20240;-82
2022/06/25 09:57:46;;;;;;;4.53;1.65;;;24.30;99.90;;;;;;6724322;88;20297;-81
2022/06/25 10:08:06;;;;;;;2.70;1.70;;;24.30;99.90;;;;;;6729534;88;20935;-81
2022/06/25 10:18:36;;;;;;;5.07;2.05;;;24.60;99.90;;;;;;6696135;88;20224;-81
2022/06/25 10:28:37;;;;;;;3.35;1.75;;;24.20;99.90;;;;;;6726200;88;20193;-81
2022/06/25 10:38:40;;;;;;;5.30;1.60;;;24.90;99.90;;;;;;6715316;88;20211;-84
2022/06/25 10:48:50;;;;;;;3.07;1.70;;;25.20;99.90;;;;;;6708023;88;20189;-80
2022/06/25 10:58:52;;;;;;;4.70;1.15;;;25.00;99.90;;;;;;6711054;88;20285;-81
2022/06/25 11:08:53;;;;;;;5.47;1.40;;;25.40;99.90;;;;;;6711549;88;20697;-82
2022/06/25 11:18:59;;;;;;;2.42;0.90;;;27.10;95.30;;;;;;6730404;88;20189;-80
2022/06/25 11:29:00;;;;;;;1.87;1.08;;;27.00;92.80;;;;;;6713860;88;20236;-78
2022/06/25 11:39:01;;;;;;;3.90;1.10;;;26.60;93.70;;;;;;6703301;88;20213;-77
2022/06/25 11:49:06;;;;;;;3.37;1.00;;;26.40;94.30;;;;;;6699591;88;20212;-78
2022/06/25 11:59:06;;;;;;;2.62;1.02;;;26.30;97.00;;;;;;6706974;88;20218;-82
2022/06/25 12:09:07;;;;;;;2.65;0.82;;;27.30;90.40;;;;;;6705904;88;20333;-79
2022/06/25 12:19:07;;;;;;;4.47;1.00;;;27.10;92.40;;;;;;6708767;88;20193;-79
2022/06/25 12:29:09;;;;;;;3.63;1.00;;;26.70;91.10;;;;;;6725751;88;20201;-81
2022/06/25 12:39:43;;;;;;;2.40;1.00;;;26.40;91.10;;;;;;6730045;88;20226;-83
2022/06/25 12:49:45;;;;;;;3.12;0.98;;;26.30;92.90;;;;;;6713344;88;20789;-82
2022/06/25 12:59:46;;;;;;;2.72;1.00;;;27.20;90.40;;;;;;6713705;88;21080;-82
2022/06/25 13:09:49;;;;;;;1.98;1.00;;;26.90;90.70;;;;;;6679878;89;20850;-82
2022/06/25 13:19:49;;;;;;;1.27;0.90;;;26.70;91.30;;;;;;6677365;89;20188;-83
2022/06/25 13:29:50;;;;;;;3.10;0.90;;;27.00;92.00;;;;;;6678478;89;20535;-82
2022/06/25 13:39:50;;;;;;;1.40;0.90;;;27.40;91.30;;;;;;6720249;88;20284;-82
2022/06/25 13:49:51;;;;;;;1.70;1.00;;;27.40;91.20;;;;;;6727482;88;20205;-82
2022/06/25 13:59:51;;;;;;;2.08;0.80;;;27.90;90.00;;;;;;6730155;88;20157;-82
2022/06/25 14:09:52;;;;;;;2.33;1.00;;;29.10;86.00;;;;;;6733273;88;20215;-82
2022/06/25 14:19:52;;;;;;;3.17;1.20;;;29.20;87.00;;;;;;6732490;88;20197;-82
2022/06/25 14:29:53;;;;;;;2.17;1.15;;;30.00;87.50;;;;;;6732406;88;20173;-82
2022/06/25 14:50:12;;;;;;;3.45;1.25;;;28.30;88.60;;;;;;6715156;88;20183;-82
2022/06/25 15:00:13;;;;;;;3.95;1.62;;;28.60;88.10;;;;;;6714983;88;20212;-83
2022/06/25 15:10:14;;;;;;;3.15;1.55;;;28.70;87.50;;;;;;6714576;88;20178;-83
2022/06/25 15:20:15;;;;;;;2.58;1.40;;;28.70;88.50;;;;;;6715064;88;20818;-82
2022/06/25 15:30:15;;;;;;;3.22;1.95;;;29.00;86.00;;;;;;6713968;88;20647;-82
2022/06/25 15:40:16;;;;;;;3.55;1.50;;;29.00;85.60;;;;;;6714104;88;20218;-82
2022/06/25 15:50:17;;;;;;;3.42;1.50;;;28.90;85.10;;;;;;6710721;88;20206;-82
2022/06/25 16:00:17;;;;;;;3.78;1.60;;;28.40;86.30;;;;;;6714228;88;20227;-83
2022/06/25 16:10:18;;;;;;;3.75;1.52;;;28.40;85.70;;;;;;6713181;88;20193;-82
2022/06/25 16:20:18;;;;;;;4.07;1.47;;;29.10;84.70;;;;;;6712427;88;20777;-83
2022/06/25 16:30:19;;;;;;;2.72;1.50;;;28.80;84.30;;;;;;6711965;88;20500;-83
2022/06/25 16:40:24;;;;;;;2.40;1.55;;;28.00;85.20;;;;;;6712243;88;20213;-83
2022/06/25 16:50:25;;;;;;;5.68;1.92;;;27.80;85.60;;;;;;6694259;88;20179;-82
2022/06/25 17:00:25;;;;;;;2.92;2.10;;;27.40;87.00;;;;;;6713627;88;20334;-83
2022/06/25 17:10:26;;;;;;;5.80;1.98;;;27.40;87.50;;;;;;6693032;88;20199;-82
2022/06/25 17:20:27;;;;;;;3.72;1.62;;;27.60;87.50;;;;;;6692755;88;20211;-83
2022/06/25 17:30:28;;;;;;;3.60;2.15;;;27.60;85.40;;;;;;6695004;88;20184;-82
2022/06/25 17:40:30;;;;;;;3.72;2.05;;;27.40;87.10;;;;;;6711619;88;20194;-83
2022/06/25 17:50:31;;;;;;;3.87;2.10;;;26.80;90.60;;;;;;6716930;88;20174;-82
2022/06/25 18:00:32;;;;;;;4.60;1.90;;;26.60;91.90;;;;;;6716274;88;20162;-83
2022/06/25 18:10:32;;;;;;;4.22;1.95;;;26.30;93.00;;;;;;6717614;88;20179;-83
2022/06/25 18:20:33;;;;;;;5.80;2.33;;;26.20;94.40;;;;;;6717604;88;20398;-82
2022/06/25 18:30:34;;;;;;;4.12;2.00;;;25.90;96.80;;;;;;6716762;88;20217;-83
2022/06/25 18:40:35;;;;;;;4.18;2.15;;;26.00;97.50;;;;;;6697782;88;20269;-82
2022/06/25 19:00:39;;;;;;;2.97;2.20;;;25.30;99.90;;;;;;6727608;88;20336;-80
2022/06/25 19:10:40;;;;;;;4.43;3.10;;;25.00;99.90;;;;;;6716626;88;20233;-80
2022/06/25 19:21:22;;;;;;;4.43;2.47;;;24.80;99.90;;;;;;6713800;77;20789;-79
2022/06/25 19:31:23;;;;;;;6.00;2.72;;;24.90;99.90;;;;;;6685113;88;20720;-80
2022/06/25 19:41:25;;;;;;;4.28;2.90;;;24.50;99.90;;;;;;6687971;88;20213;-79
2022/06/25 19:51:27;;;;;;;3.67;2.50;;;23.90;99.90;;;;;;6685671;89;20239;-81
2022/06/25 20:01:28;;;;;;;5.87;3.12;;;23.80;99.90;;;;;;6683330;89;20789;-79
2022/06/25 20:11:29;;;;;;;6.37;3.45;;;23.80;99.90;;;;;;6680728;89;20294;-79
2022/06/25 20:21:32;;;;;;;5.22;3.00;;;23.60;99.90;;;;;;6682528;89;20622;-81
2022/06/25 20:31:32;;;;;;;4.23;2.70;;;23.30;99.90;;;;;;6667012;89;20170;-80
2022/06/25 20:41:34;;;;;;;4.30;2.35;;;23.30;99.90;;;;;;6688881;89;20268;-81
2022/06/25 20:51:35;;;;;;;4.60;2.67;;;23.20;99.90;;;;;;6685346;88;20206;-81
2022/06/25 21:01:35;;;;;;;6.75;2.80;;;23.30;99.90;;;;;;6684062;88;20284;-80
2022/06/25 21:11:36;;;;;;;4.82;3.30;;;22.90;99.90;;;;;;6675333;89;20650;-79
2022/06/25 21:21:36;;;;;;;5.85;3.30;;;22.80;99.90;;;;;;6671506;88;20203;-79
2022/06/25 21:31:37;;;;;;;4.65;3.17;;;22.50;99.90;;;;;;6676261;88;20219;-79
2022/06/25 21:41:37;;;;;;;8.73;3.97;;;22.20;99.90;;;;;;6676056;89;20224;-79
2022/06/25 21:51:39;;;;;;;7.43;4.72;;;22.10;99.90;;;;;;6675338;89;20188;-80
2022/06/25 22:01:39;;;;;;;8.88;5.05;;;22.00;99.90;;;;;;6680513;89;20183;-80
2022/06/25 22:11:40;;;;;;;8.65;4.53;;;22.20;99.90;;;;;;6678387;89;20241;-79
2022/06/25 22:21:40;;;;;;;6.90;4.45;;;22.00;99.90;;;;;;6672214;88;20207;-79
2022/06/25 22:31:41;;;;;;;8.55;5.00;;;21.90;99.90;;;;;;6677453;89;20209;-79
2022/06/25 22:41:42;;;;;;;7.45;4.10;;;22.20;99.90;;;;;;6677665;89;20196;-78
2022/06/25 22:51:42;;;;;;;8.17;4.60;;;21.90;99.90;;;;;;6674951;89;20219;-79
2022/06/25 23:01:43;;;;;;;3.85;2.60;;;21.70;99.90;;;;;;6678917;89;20695;-81
2022/06/25 23:11:43;;;;;;;5.60;2.10;;;21.20;99.90;;;;;;6673323;89;20192;-79
2022/06/25 23:21:44;;;;;;;4.45;2.70;;;20.90;99.90;;;;;;6678433;89;20213;-80
2022/06/25 23:31:44;;;;;;;6.07;3.40;;;19.60;99.90;;;;;;6680366;88;20203;-80
2022/06/25 23:41:45;;;;;;;4.70;3.20;;;19.10;99.90;;;;;;6679883;89;20208;-81
2022/06/25 23:51:45;;;;;;;5.85;3.17;;;19.10;99.90;;;;;;6680057;89;20216;-80
